^^
Datos históricos de la estación: Murcia-Puente Tocinos
Diario Informe para Noviembre 29, 2019 Unidades:  Ingés    Métrico   Ambas
Diario Semanal Mensual Anual
  Máxima: Mínima: Promedio:
Temperatura: 71.6 °F 52.5 °F 61.5 °F
Punto de rocio: 52 °F 44.1 °F 48.4 °F
Humedad: 76% 47.4% 63%
Velocidad viento: 12.5mph 0mph 5.1mph
Racha viento: 24.2mph - -
Viento- - SO
Presión: 30.1 in 30 in -
Precipitación: 0 in    
 
 
Tabla de datos para Noviembre 29, 2019
Hora Temperatura Punto de rocio Presión Viento Velocidad viento Racha viento Humedad Intensidad lluvia(por hora) Nubes
00:04 58.3 °F 46.6 °F 30.1 in SO 5.9 mph 9 mph 65% 0 in
00:09 58.3 °F 46.6 °F 30.1 in SSO 6.2 mph 8 mph 65% 0 in
00:14 58.3 °F 46.6 °F 30.1 in SSO 4.8 mph 7 mph 65% 0 in
00:19 58.1 °F 46.4 °F 30.1 in SO 4.3 mph 6.9 mph 65% 0 in
00:24 57.9 °F 46.2 °F 30.1 in SO 4.3 mph 7.4 mph 65% 0 in
00:29 57.9 °F 46.2 °F 30.1 in SO 4.3 mph 8.1 mph 65% 0 in
00:34 57.7 °F 46.4 °F 30.1 in SO 4.6 mph 8 mph 66% 0 in
00:39 57.4 °F 46.4 °F 30.1 in SSO 4.7 mph 7.4 mph 66.8% 0 in
00:44 57 °F 46.6 °F 30.1 in Sur 4.7 mph 7.4 mph 67.7% 0 in
00:49 56.7 °F 46.4 °F 30.1 in Sur 4.7 mph 9.2 mph 68.4% 0 in
00:54 56.5 °F 46.4 °F 30.1 in SSO 5.2 mph 9 mph 69% 0 in
00:59 56.1 °F 46.4 °F 30 in SSO 5.4 mph 9.2 mph 69.7% 0 in
01:04 55.9 °F 46.4 °F 30 in SSO 5.8 mph 9 mph 70% 0 in
01:09 55.8 °F 46.2 °F 30 in SO 5.9 mph 8.1 mph 70% 0 in
01:14 55.8 °F 46 °F 30 in SSO 5.4 mph 11.8 mph 70% 0 in
01:19 55.8 °F 46 °F 30 in SSO 5.2 mph 12 mph 70% 0 in
01:24 55.8 °F 46 °F 30 in SSO 5.2 mph 9 mph 70% 0 in
01:29 55.8 °F 46 °F 30 in SO 5.2 mph 9.2 mph 70% 0 in
01:34 55.8 °F 45.9 °F 30 in SO 5.2 mph 9.7 mph 69.1% 0 in
01:39 55.9 °F 45.9 °F 30 in SO 5.2 mph 10.4 mph 69% 0 in
01:44 55.9 °F 46 °F 30 in SO 5.9 mph 10.4 mph 69% 0 in
01:49 55.9 °F 45.7 °F 30 in SO 6.2 mph 11.5 mph 68.1% 0 in
01:54 55.9 °F 45.7 °F 30 in SO 6.3 mph 13 mph 68.6% 0 in
01:59 55.9 °F 45.7 °F 30 in SO 6.4 mph 13 mph 68.5% 0 in
02:04 55.9 °F 45.7 °F 30 in SSO 6.4 mph 11 mph 68.3% 0 in
02:09 55.9 °F 45.9 °F 30 in SO 6.4 mph 10.4 mph 68.7% 0 in
02:14 55.9 °F 45.5 °F 30 in SO 6.4 mph 10 mph 68.1% 0 in
02:19 55.9 °F 45.5 °F 30 in SSO 6.4 mph 11.8 mph 68% 0 in
02:24 55.9 °F 45.5 °F 30 in SSO 6.4 mph 12.7 mph 68% 0 in
02:29 55.9 °F 45.5 °F 30 in SSO 6.4 mph 13 mph 68% 0 in
02:34 55.9 °F 45.5 °F 30 in SSO 6 mph 11.5 mph 68% 0 in
02:39 55.9 °F 45.5 °F 30 in SO 5.9 mph 12 mph 68% 0 in
02:44 55.9 °F 45.7 °F 30 in SSO 5.4 mph 9 mph 68.3% 0 in
02:49 55.9 °F 45.9 °F 30 in SSO 5.2 mph 9.7 mph 69% 0 in
02:54 55.8 °F 45.7 °F 30 in SO 5.3 mph 10 mph 69% 0 in
02:59 55.8 °F 45.7 °F 30 in SSO 5.4 mph 9.2 mph 69% 0 in
03:04 55.8 °F 45.7 °F 30 in SO 5.8 mph 9.2 mph 69.2% 0 in
03:09 55.8 °F 46 °F 30 in SO 5.9 mph 8.1 mph 70% 0 in
03:14 55.8 °F 45.7 °F 30 in SO 5.4 mph 9.2 mph 69.1% 0 in
03:19 55.9 °F 45.9 °F 30 in SO 5.2 mph 9 mph 69% 0 in
03:24 55.9 °F 45.9 °F 30 in SSO 5.7 mph 9.2 mph 69% 0 in
03:29 55.8 °F 45.7 °F 30 in SO 5.9 mph 9 mph 69% 0 in
03:34 55.8 °F 45.7 °F 30 in SO 5.4 mph 9.7 mph 69% 0 in
03:39 55.8 °F 45.7 °F 30 in SSO 5.2 mph 10 mph 69% 0 in
03:44 55.6 °F 45.7 °F 30 in SO 5.2 mph 9.2 mph 69% 0 in
03:49 55.8 °F 45.5 °F 30 in SO 5.2 mph 12.3 mph 68.4% 0 in
03:54 55.8 °F 45.3 °F 30 in SO 6 mph 15 mph 67.6% 0 in
03:59 55.9 °F 45 °F 30 in SSO 6.4 mph 15 mph 66.8% 0 in
04:04 56.1 °F 44.8 °F 30 in SSO 6.4 mph 11.8 mph 65.8% 0 in
04:09 56.5 °F 44.8 °F 30 in Sur 6.4 mph 12 mph 65% 0 in
04:14 55.9 °F 45 °F 30 in Sur 6.8 mph 11.2 mph 66.3% 0 in
04:19 55.2 °F 44.8 °F 30 in Sur 6.9 mph 12 mph 67.9% 0 in
04:24 54.9 °F 44.8 °F 30 in SSO 6.4 mph 9 mph 69% 0 in
04:29 54.5 °F 45 °F 30 in SSO 6.2 mph 9 mph 70% 0 in
04:34 54.3 °F 44.8 °F 30 in OSO 5.2 mph 8 mph 70% 0 in
04:39 54.3 °F 44.4 °F 30 in Oeste 4.7 mph 5 mph 69.2% 0 in
04:44 54.3 °F 44.4 °F 30 in Oeste 2.7 mph 5 mph 69.1% 0 in
04:49 54.3 °F 44.8 °F 30 in SSE 1.8 mph 5 mph 70% 0 in
04:54 54.3 °F 44.8 °F 30 in Sur 2.6 mph 5.9 mph 70% 0 in
04:59 54.5 °F 44.6 °F 30 in Sur 2.9 mph 6.9 mph 69.1% 0 in
05:04 54.7 °F 44.4 °F 30 in Sur 3.9 mph 7 mph 68.4% 0 in
05:09 54.7 °F 44.4 °F 30 in Sur 4.3 mph 7 mph 68% 0 in
05:14 54.7 °F 44.4 °F 30 in Sur 4.6 mph 6.9 mph 68.3% 0 in
05:19 54.5 °F 44.4 °F 30 in Sur 4.7 mph 7 mph 69% 0 in
05:24 54.1 °F 44.4 °F 30 in Sur 4.4 mph 7 mph 69.2% 0 in
05:29 54.1 °F 44.6 °F 30 in Sur 4.3 mph 7 mph 70% 0 in
05:34 54 °F 44.4 °F 30 in Sur 4.1 mph 6.2 mph 70.2% 0 in
05:39 54 °F 44.8 °F 30 in Sur 4 mph 8.1 mph 71% 0 in
05:44 53.8 °F 44.8 °F 30 in Sur 4.5 mph 8 mph 71.5% 0 in
05:49 53.4 °F 44.8 °F 30 in Sur 4.7 mph 8.1 mph 72.3% 0 in
05:54 53.2 °F 45 °F 30 in Sur 4.7 mph 8.1 mph 73.2% 0 in
05:59 53.1 °F 45 °F 30 in Sur 4.7 mph 8 mph 74% 0 in
06:04 53.1 °F 45.3 °F 30 in Sur 4.7 mph 7.4 mph 74.8% 0 in
06:09 52.9 °F 45.1 °F 30 in Sur 4.7 mph 8.1 mph 75% 0 in
06:14 52.9 °F 45.3 °F 30 in Sur 5.2 mph 8.1 mph 75.9% 0 in
06:19 52.5 °F 45.1 °F 30 in Sur 5.4 mph 9.2 mph 76% 0 in
06:24 52.5 °F 45.1 °F 30 in SSO 5.8 mph 9 mph 76% 0 in
06:29 52.7 °F 45.3 °F 30 in Sur 5.9 mph 8 mph 76% 0 in
06:34 52.9 °F 45.3 °F 30 in SSO 5.4 mph 8.1 mph 75.7% 0 in
06:39 52.9 °F 45.1 °F 30 in SSO 5.2 mph 8.1 mph 75% 0 in
06:44 52.9 °F 45.1 °F 30 in SSO 5.7 mph 9.2 mph 75% 0 in
06:49 52.9 °F 45 °F 30 in SSO 5.9 mph 10.4 mph 74.2% 0 in
06:54 53.1 °F 45 °F 30 in SSO 6.1 mph 10 mph 73.8% 0 in
06:59 53.1 °F 44.6 °F 30 in Sur 6.2 mph 9 mph 73% 0 in
07:04 53.2 °F 44.8 °F 30 in Sur 6 mph 8.1 mph 73% 0 in
07:09 53.2 °F 44.6 °F 30 in Sur 5.9 mph 8.1 mph 72.2% 0 in
07:14 53.4 °F 44.6 °F 30 in SSO 5.9 mph 9.7 mph 72% 0 in
07:19 53.4 °F 44.6 °F 30 in SSO 5.9 mph 11.2 mph 71.9% 0 in
07:24 53.4 °F 44.2 °F 30.1 in SSO 6.3 mph 11 mph 71% 0 in
07:29 53.8 °F 44.4 °F 30.1 in SSO 6.4 mph 11 mph 70.6% 0 in
07:34 54 °F 44.4 °F 30.1 in SO 6.4 mph 10 mph 70% 0 in
07:39 54 °F 44.4 °F 30.1 in SSO 6.4 mph 9 mph 70% 0 in
07:44 54 °F 44.4 °F 30.1 in SSO 5.6 mph 8.1 mph 70% 0 in
07:49 54 °F 44.2 °F 30.1 in SO 5.2 mph 8.1 mph 69.5% 0 in
07:54 54.1 °F 44.2 °F 30.1 in SSO 4.8 mph 7 mph 69% 0 in
07:59 54.1 °F 44.2 °F 30.1 in SSO 4.7 mph 6 mph 69.1% 0 in
08:04 54.1 °F 44.2 °F 30.1 in Sur 3.9 mph 6.4 mph 69.3% 0 in
08:09 54.1 °F 44.2 °F 30.1 in Sur 3.6 mph 8.5 mph 69.1% 0 in
08:14 54 °F 44.1 °F 30.1 in Sur 4.7 mph 9 mph 69% 0 in
08:19 54 °F 44.1 °F 30.1 in Sur 5.2 mph 9.2 mph 69.2% 0 in
08:24 53.8 °F 44.2 °F 30.1 in Sur 5.9 mph 10.4 mph 70% 0 in
08:29 53.8 °F 44.2 °F 30.1 in SSO 6.2 mph 10 mph 70% 0 in
08:34 54 °F 44.2 °F 30.1 in SSO 6 mph 8.1 mph 70% 0 in
08:39 54 °F 44.2 °F 30.1 in SSO 5.9 mph 8.1 mph 69.3% 0 in
08:44 54.3 °F 44.2 °F 30.1 in SSO 5 mph 10.4 mph 68.7% 0 in
08:49 54.7 °F 44.4 °F 30.1 in SO 4.7 mph 10 mph 68% 0 in
08:54 54.9 °F 44.4 °F 30.1 in SSO 5.2 mph 9 mph 67.8% 0 in
08:59 55 °F 44.4 °F 30.1 in SO 5.4 mph 9.2 mph 67.1% 0 in
09:04 55.2 °F 44.4 °F 30.1 in SO 5.4 mph 12.7 mph 67% 0 in
09:09 55.2 °F 44.4 °F 30.1 in SO 5.4 mph 13 mph 67% 0 in
09:14 55.6 °F 44.8 °F 30.1 in SSO 6.8 mph 12 mph 67% 0 in
09:19 55.9 °F 45.1 °F 30.1 in SSO 7.4 mph 10 mph 67% 0 in
09:24 56.5 °F 45.3 °F 30.1 in SSO 6 mph 9 mph 66.3% 0 in
09:29 57 °F 45.7 °F 30.1 in SO 5.4 mph 8.1 mph 65.7% 0 in
09:34 57.7 °F 45.9 °F 30.1 in SO 4.2 mph 9.2 mph 64.4% 0 in
09:39 58.5 °F 45.9 °F 30.1 in SO 3.6 mph 10.4 mph 63.1% 0 in
09:44 58.6 °F 45.9 °F 30.1 in SO 4.9 mph 10.4 mph 62.5% 0 in
09:49 59 °F 46 °F 30.1 in SO 5.4 mph 10.4 mph 62% 0 in
09:54 59.4 °F 46.2 °F 30.1 in SO 5.4 mph 10.7 mph 61.7% 0 in
09:59 59.9 °F 46.4 °F 30.1 in SO 5.4 mph 14 mph 61% 0 in
10:04 60.4 °F 46.6 °F 30.1 in SSO 6.5 mph 14 mph 60.3% 0 in
10:09 60.6 °F 46.8 °F 30.1 in SSO 6.9 mph 14 mph 60% 0 in
10:14 61 °F 46.9 °F 30.1 in Sur 6.5 mph 12 mph 60% 0 in
10:19 61.3 °F 47.1 °F 30.1 in Sur 6.4 mph 10.7 mph 59.5% 0 in
10:24 61.9 °F 47.3 °F 30.1 in Sur 5.7 mph 11 mph 59% 0 in
10:29 62.1 °F 47.7 °F 30.1 in Sur 5.4 mph 11.5 mph 59% 0 in
10:34 62.6 °F 48 °F 30.1 in Sur 6 mph 12 mph 58.9% 0 in
10:39 63 °F 47.8 °F 30.1 in Sur 6.2 mph 10.4 mph 58% 0 in
10:44 63.1 °F 48 °F 30.1 in Sur 6 mph 10.4 mph 57.6% 0 in
10:49 63.7 °F 48 °F 30.1 in SSO 5.9 mph 11.8 mph 56.8% 0 in
10:54 64 °F 48 °F 30.1 in Sur 6.3 mph 12.7 mph 56% 0 in
10:59 64.4 °F 48.4 °F 30.1 in Sur 6.4 mph 13 mph 55.8% 0 in
11:04 64.8 °F 48.6 °F 30.1 in SSO 6.8 mph 12.7 mph 55.7% 0 in
11:09 64.9 °F 48.6 °F 30.1 in SSO 6.9 mph 13.8 mph 55.3% 0 in
11:14 65.1 °F 48.6 °F 30.1 in SSO 6.9 mph 14 mph 55% 0 in
11:19 65.3 °F 48.7 °F 30.1 in SO 6.9 mph 13 mph 54.9% 0 in
11:24 65.7 °F 48.9 °F 30.1 in SSO 6.9 mph 13.8 mph 54.6% 0 in
11:29 65.8 °F 48.9 °F 30.1 in SSO 6.9 mph 15.2 mph 54.4% 0 in
11:34 66 °F 48.9 °F 30.1 in SSO 7.4 mph 15 mph 54% 0 in
11:39 66.4 °F 49.1 °F 30.1 in Sur 7.6 mph 15 mph 54% 0 in
11:44 66.6 °F 49.1 °F 30.1 in SSO 7.1 mph 14 mph 53.4% 0 in
11:49 66.6 °F 48.9 °F 30.1 in SSO 6.9 mph 14 mph 53% 0 in
11:54 66.7 °F 48.9 °F 30.1 in SO 7.8 mph 13 mph 52.8% 0 in
11:59 66.9 °F 48.9 °F 30.1 in SO 8.1 mph 12 mph 52.4% 0 in
12:04 67.1 °F 48.9 °F 30.1 in SO 6.7 mph 12 mph 52% 0 in
12:09 67.5 °F 48.9 °F 30.1 in SO 6.2 mph 12.7 mph 51.4% 0 in
12:14 67.6 °F 49.1 °F 30.1 in SO 6.3 mph 13 mph 51.3% 0 in
12:19 68 °F 49.3 °F 30.1 in SSO 6.4 mph 11.5 mph 51.2% 0 in
12:24 68.2 °F 49.5 °F 30.1 in SSO 6 mph 12 mph 51% 0 in
12:29 68.4 °F 49.5 °F 30.1 in SO 5.9 mph 9.2 mph 50.8% 0 in
12:34 68.5 °F 49.1 °F 30.1 in SO 5.4 mph 9 mph 50% 0 in
12:39 68.5 °F 49.3 °F 30.1 in SO 5.2 mph 10.4 mph 50% 0 in
12:44 68.7 °F 49.3 °F 30.1 in SSO 5.3 mph 10.4 mph 50% 0 in
12:49 69.1 °F 49.3 °F 30.1 in SO 5.4 mph 11.5 mph 49.3% 0 in
12:54 69.3 °F 49.3 °F 30.1 in SSO 5.8 mph 12 mph 49.2% 0 in
12:59 69.3 °F 49.3 °F 30.1 in SO 5.9 mph 10 mph 49% 0 in
13:04 69.4 °F 49.3 °F 30.1 in OSO 4.5 mph 8.5 mph 48.5% 0 in
13:09 69.8 °F 49.3 °F 30.1 in SSO 4 mph 9 mph 48.1% 0 in
13:14 70.2 °F 49.1 °F 30.1 in Sur 4.2 mph 9 mph 47.4% 0 in
13:19 70.3 °F 49.5 °F 30.1 in SO 4.3 mph 8.5 mph 47.7% 0 in
13:24 70.5 °F 50 °F 30.1 in OSO 4.6 mph 12.7 mph 48.2% 0 in
13:29 70.5 °F 50 °F 30.1 in Oeste 4.7 mph 13 mph 48.2% 0 in
13:34 70.9 °F 50.2 °F 30.1 in OSO 5.5 mph 13.8 mph 48% 0 in
13:39 70.9 °F 50.4 °F 30.1 in Oeste 5.9 mph 15 mph 48.4% 0 in
13:44 71.1 °F 50.9 °F 30.1 in OSO 7.1 mph 15 mph 49% 0 in
13:49 71.1 °F 50.7 °F 30.1 in Oeste 7.6 mph 15 mph 48.7% 0 in
13:54 71.1 °F 50.7 °F 30.1 in Oeste 7.6 mph 14 mph 48.5% 0 in
13:59 71.1 °F 50.9 °F 30.1 in Oeste 7.6 mph 24.2 mph 49% 0 in
14:04 70.9 °F 50.7 °F 30.1 in Oeste 8.8 mph 24 mph 49% 0 in
14:09 70.9 °F 50.9 °F 30.1 in ONO 9.2 mph 21.9 mph 49% 0 in
14:14 70.9 °F 50.7 °F 30.1 in ONO 9.6 mph 22 mph 49% 0 in
14:19 70.9 °F 50.7 °F 30.1 in ONO 9.7 mph 23.5 mph 49% 0 in
14:24 70.9 °F 50.9 °F 30.1 in ONO 10.7 mph 23 mph 49.2% 0 in
14:29 70.9 °F 51.1 °F 30.1 in ONO 11.2 mph 19.7 mph 49.6% 0 in
14:34 70.9 °F 51.3 °F 30.1 in ONO 12.1 mph 20 mph 50% 0 in
14:39 70.7 °F 51.1 °F 30.1 in ONO 12.5 mph 19.6 mph 50% 0 in
14:44 70.5 °F 51.1 °F 30.1 in Oeste 10.9 mph 20 mph 50% 0 in
14:49 70.5 °F 51.1 °F 30.1 in ONO 10.2 mph 18.4 mph 50% 0 in
14:54 70.7 °F 51.3 °F 30.1 in Oeste 9.9 mph 18 mph 50.3% 0 in
14:59 71.1 °F 51.4 °F 30.1 in Oeste 9.7 mph 16.1 mph 50% 0 in
15:04 71.2 °F 51.6 °F 30.1 in ONO 8.9 mph 16.1 mph 50% 0 in
15:09 71.6 °F 51.4 °F 30.1 in ONO 8.7 mph 16.1 mph 49.3% 0 in
15:14 71.6 °F 51.4 °F 30.1 in ONO 9.4 mph 16 mph 49% 0 in
15:19 71.4 °F 51.3 °F 30.1 in ONO 9.7 mph 20.7 mph 49% 0 in
15:24 71.2 °F 51.1 °F 30.1 in ONO 10.4 mph 21 mph 49.2% 0 in
15:29 70.9 °F 51.3 °F 30.1 in ONO 10.7 mph 19.2 mph 49.8% 0 in
15:34 70.7 °F 51.1 °F 30.1 in Oeste 11.4 mph 20 mph 50% 0 in
15:39 70.5 °F 51.1 °F 30.1 in ONO 11.8 mph 17 mph 50% 0 in
15:44 70.5 °F 51.3 °F 30.1 in ONO 9.6 mph 16.1 mph 50.7% 0 in
15:49 70.5 °F 51.4 °F 30.1 in Oeste 8.7 mph 13 mph 51% 0 in
15:54 70.5 °F 51.4 °F 30.1 in ONO 7.5 mph 13 mph 51% 0 in
15:59 70.3 °F 51.4 °F 30.1 in ONO 6.9 mph 13 mph 51% 0 in
16:04 70.5 °F 51.4 °F 30.1 in ONO 6.4 mph 10.4 mph 51% 0 in
16:09 70.5 °F 51.4 °F 30.1 in Oeste 6.2 mph 10.7 mph 51% 0 in
16:14 70.5 °F 51.4 °F 30.1 in ONO 6.3 mph 11.5 mph 51% 0 in
16:19 70.5 °F 51.4 °F 30.1 in ONO 6.4 mph 13.8 mph 51% 0 in
16:24 70.3 °F 51.3 °F 30.1 in ONO 6.8 mph 14 mph 51% 0 in
16:29 70.3 °F 51.6 °F 30.1 in ONO 6.9 mph 10 mph 51.4% 0 in
16:34 70.3 °F 51.3 °F 30.1 in ONO 6.2 mph 12.7 mph 51% 0 in
16:39 70.3 °F 51.3 °F 30.1 in ONO 5.9 mph 13 mph 51% 0 in
16:44 70.3 °F 51.3 °F 30.1 in ONO 6.6 mph 13 mph 51% 0 in
16:49 70.2 °F 51.3 °F 30.1 in ONO 6.9 mph 12 mph 51% 0 in
16:54 70.2 °F 51.3 °F 30.1 in ONO 6.5 mph 11.5 mph 51% 0 in
16:59 70 °F 51.1 °F 30.1 in ONO 6.4 mph 12 mph 51% 0 in
17:04 69.6 °F 51.1 °F 30.1 in ONO 6.8 mph 12 mph 51.7% 0 in
17:09 69.6 °F 51.1 °F 30.1 in ONO 6.9 mph 12 mph 52% 0 in
17:14 69.4 °F 51.1 °F 30.1 in ONO 6.4 mph 10 mph 52.2% 0 in
17:19 69.3 °F 51.1 °F 30.1 in ONO 6.2 mph 9.7 mph 52.3% 0 in
17:24 69.3 °F 51.4 °F 30.1 in ONO 5.7 mph 10.4 mph 53% 0 in
17:29 69.1 °F 51.3 °F 30.1 in ONO 5.4 mph 10 mph 53% 0 in
17:34 69.1 °F 51.1 °F 30.1 in NO 5.4 mph 9 mph 53% 0 in
17:39 68.7 °F 51.3 °F 30.1 in NO 5.4 mph 7 mph 53.7% 0 in
17:44 68.5 °F 51.1 °F 30.1 in NNO 3.7 mph 5 mph 54% 0 in
17:49 68.4 °F 51.4 °F 30.1 in NO 2.9 mph 5.2 mph 54.9% 0 in
17:54 68 °F 51.3 °F 30.1 in NO 2.5 mph 5 mph 55% 0 in
17:59 67.8 °F 51.1 °F 30.1 in ONO 2.4 mph 5 mph 55% 0 in
18:04 67.6 °F 51.4 °F 30.1 in NO 2.8 mph 5 mph 55.9% 0 in
18:09 67.6 °F 51.3 °F 30.1 in NNO 2.9 mph 5 mph 56% 0 in
18:14 67.5 °F 51.3 °F 30.1 in NO 2.5 mph 5 mph 56.3% 0 in
18:19 67.3 °F 51.4 °F 30.1 in NO 2.4 mph 4 mph 57% 0 in
18:24 66.9 °F 51.3 °F 30.1 in NO 2 mph 4 mph 57.1% 0 in
18:29 66.7 °F 51.4 °F 30.1 in NO 1.8 mph   58% 0 in
18:34 66.6 °F 51.6 °F 30.1 in NO 0.5 mph   58.5% 0 in
18:39 66.6 °F 51.6 °F 30.1 in Calm     58.9% 0 in
18:44 66.4 °F 51.6 °F 30.1 in Calm     59% 0 in
18:49 66.4 °F 51.6 °F 30.1 in Calm   2.9 mph 59% 0 in
18:54 66.2 °F 51.4 °F 30.1 in Calm   4.6 mph 59% 0 in
18:59 66 °F 51.3 °F 30.1 in Calm   5 mph 59% 0 in
19:04 66 °F 51.4 °F 30.1 in SSO 1.7 mph 4.6 mph 59.6% 0 in
19:09 65.8 °F 51.8 °F 30.1 in SSE 2.4 mph 5 mph 60.3% 0 in
19:14 65.7 °F 51.8 °F 30.1 in SSE 2.7 mph 5 mph 61% 0 in
19:19 65.7 °F 51.8 °F 30.1 in SSE 2.9 mph 5 mph 61% 0 in
19:24 65.5 °F 52 °F 30.1 in SSE 2.2 mph 3 mph 61.7% 0 in
19:29 65.1 °F 51.8 °F 30.1 in SSE 2 mph 2 mph 62% 0 in
19:34 64.9 °F 51.8 °F 30.1 in SSE 0.6 mph 3.5 mph 62% 0 in
19:39 64.9 °F 52 °F 30.1 in Calm   3.5 mph 62.8% 0 in
19:44 64.8 °F 52 °F 30.1 in SSE 1 mph 2 mph 63% 0 in
19:49 64.6 °F 51.6 °F 30.1 in SSE 1.4 mph   63% 0 in
19:54 64.2 °F 51.8 °F 30.1 in SSE 0.4 mph   63.9% 0 in
19:59 64 °F 51.8 °F 30.1 in Calm     64.3% 0 in
20:04 63.9 °F 51.8 °F 30.1 in Calm     65% 0 in
20:09 63.7 °F 51.6 °F 30.1 in Calm     65% 0 in
20:14 63.3 °F 51.6 °F 30.1 in Calm     65.7% 0 in
20:19 63.1 °F 51.6 °F 30.1 in Calm     66% 0 in
20:24 63 °F 51.8 °F 30.1 in Calm     66.7% 0 in
20:29 62.8 °F 51.8 °F 30.1 in Calm     67% 0 in
20:34 62.6 °F 51.8 °F 30.1 in Calm     67.8% 0 in
20:39 62.2 °F 51.6 °F 30.1 in Calm     68.3% 0 in
20:44 62.1 °F 51.8 °F 30.1 in Calm     69% 0 in
20:49 61.9 °F 51.6 °F 30.1 in Calm     69% 0 in
20:54 61.5 °F 51.6 °F 30.1 in Calm   5.2 mph 69.9% 0 in
20:59 61.3 °F 51.4 °F 30.1 in Calm   5.2 mph 70% 0 in
21:04 61.2 °F 51.4 °F 30.1 in SSE 1.8 mph 5.2 mph 70.8% 0 in
21:09 61 °F 51.4 °F 30.1 in Sur 2.4 mph 5 mph 71% 0 in
21:14 61 °F 51.6 °F 30.1 in SSO 2.9 mph 5.2 mph 71% 0 in
21:19 61.2 °F 51.4 °F 30.1 in SSO 3.1 mph 5.8 mph 70.3% 0 in
21:24 61.3 °F 51.4 °F 30.1 in SSO 3.7 mph 6.2 mph 70% 0 in
21:29 61.3 °F 51.4 °F 30.1 in SSO 4 mph 6.2 mph 70% 0 in
21:34 61.3 °F 51.4 °F 30.1 in SSO 4 mph 6 mph 70% 0 in
21:39 61.3 °F 51.4 °F 30.1 in Sur 4 mph 6 mph 70% 0 in
21:44 61.3 °F 51.3 °F 30.1 in Sur 3.2 mph 5.9 mph 69.3% 0 in
21:49 61.2 °F 51.1 °F 30.1 in Sur 2.9 mph 6.2 mph 69.5% 0 in
21:54 61.2 °F 51.3 °F 30.1 in Sur 3.7 mph 6.2 mph 70% 0 in
21:59 61 °F 51.1 °F 30.1 in Sur 4 mph 6 mph 70% 0 in
22:04 60.6 °F 51.1 °F 30.1 in SSO 4 mph 5.9 mph 70.4% 0 in
22:09 60.6 °F 51.1 °F 30.1 in SSO 4 mph 6.2 mph 71% 0 in
22:14 60.4 °F 51.1 °F 30.1 in SSO 4 mph 6.9 mph 71% 0 in
22:19 60.4 °F 51.1 °F 30.1 in SSO 4 mph 7 mph 71% 0 in
22:24 60.4 °F 51.1 °F 30.1 in Sur 4.2 mph 7 mph 71.1% 0 in
22:29 60.3 °F 51.1 °F 30.1 in SSO 4.3 mph 8.5 mph 71.7% 0 in
22:34 60.3 °F 51.3 °F 30.1 in SSO 4.6 mph 9 mph 72% 0 in
22:39 60.3 °F 51.1 °F 30.1 in SSO 4.7 mph 9.2 mph 71.5% 0 in
22:44 60.3 °F 50.7 °F 30.1 in SO 5.6 mph 9 mph 71% 0 in
22:49 60.3 °F 50.7 °F 30.1 in SO 5.9 mph 7 mph 71% 0 in
22:54 60.3 °F 50.7 °F 30.1 in SO 4.5 mph 7 mph 71% 0 in
22:59 60.3 °F 50.7 °F 30.1 in SO 4 mph 7 mph 71% 0 in
23:04 60.3 °F 50.7 °F 30.1 in SO 3.4 mph 6.2 mph 71% 0 in
23:09 60.3 °F 50.7 °F 30.1 in SO 3.1 mph 6 mph 71% 0 in
23:14 60.3 °F 50.7 °F 30.1 in SSO 3.5 mph 6 mph 71% 0 in
23:19 60.3 °F 50.7 °F 30.1 in SSO 3.6 mph 5 mph 71% 0 in
23:24 60.3 °F 50.7 °F 30.1 in SSO 2.1 mph   71% 0 in
23:29 60.1 °F 50.7 °F 30.1 in SSO 1.4 mph   71.3% 0 in
23:34 59.7 °F 50.7 °F 30.1 in SSO 0.4 mph   72% 0 in
23:39 59.5 °F 50.7 °F 30.1 in Calm     72.4% 0 in
23:44 59.4 °F 50.7 °F 30.1 in Calm   3.5 mph 73% 0 in
23:49 59.4 °F 50.5 °F 30.1 in Calm   4.7 mph 73% 0 in
23:54 59.4 °F 50.5 °F 30.1 in SSE 1.7 mph 5 mph 73% 0 in
23:59 59.4 °F 50.7 °F 30.1 in SSO 2.4 mph 5 mph 73% 0 in
Murcia-Puente Tocinos, España
Compliments of Weather Underground - 2.75 mb

La estación de MeteoMurcia.com, publica sus datos en los siguientes proyectos:

Weather Underground PWS IMURCIAP2 Meteoclimatic www.awekas.at

W3Counter
Web Analytics